sensor_id;sensor_type;location;lat;lon;timestamp;pressure;altitude;pressure_sealevel;temperature;humidity
30819;BME280;17546;42.674;23.284;2023-05-03T00:01:32;95006.63;;;20.72;27.71
30819;BME280;17546;42.674;23.284;2023-05-03T00:03:58;95004.75;;;20.22;28.66
30819;BME280;17546;42.674;23.284;2023-05-03T00:06:32;94989.75;;;20.64;27.77
30819;BME280;17546;42.674;23.284;2023-05-03T00:08:57;94992.75;;;20.22;28.17
30819;BME280;17546;42.674;23.284;2023-05-03T00:11:22;95000.84;;;20.33;27.92
30819;BME280;17546;42.674;23.284;2023-05-03T00:13:48;95005.03;;;19.54;28.70
30819;BME280;17546;42.674;23.284;2023-05-03T00:16:13;94987.50;;;19.90;28.09
30819;BME280;17546;42.674;23.284;2023-05-03T00:18:39;94988.56;;;19.79;28.17
30819;BME280;17546;42.674;23.284;2023-05-03T00:21:04;95012.75;;;20.11;28.22
30819;BME280;17546;42.674;23.284;2023-05-03T00:23:30;95007.25;;;20.41;27.78
30819;BME280;17546;42.674;23.284;2023-05-03T00:25:57;94997.59;;;20.58;27.64
30819;BME280;17546;42.674;23.284;2023-05-03T00:28:24;95006.94;;;20.16;27.77
30819;BME280;17546;42.674;23.284;2023-05-03T00:30:51;95008.94;;;20.00;28.19
30819;BME280;17546;42.674;23.284;2023-05-03T00:33:19;94997.25;;;20.25;27.79
30819;BME280;17546;42.674;23.284;2023-05-03T00:35:44;94996.16;;;19.99;27.83
30819;BME280;17546;42.674;23.284;2023-05-03T00:38:10;94991.56;;;19.31;29.22
30819;BME280;17546;42.674;23.284;2023-05-03T00:40:36;95004.72;;;19.86;28.78
30819;BME280;17546;42.674;23.284;2023-05-03T00:43:02;95011.13;;;19.94;28.05
30819;BME280;17546;42.674;23.284;2023-05-03T00:45:29;95031.84;;;20.05;28.25
30819;BME280;17546;42.674;23.284;2023-05-03T00:47:57;95032.72;;;19.99;27.97
30819;BME280;17546;42.674;23.284;2023-05-03T00:50:22;94999.63;;;19.56;28.44
30819;BME280;17546;42.674;23.284;2023-05-03T00:52:51;95025.13;;;19.58;28.53
30819;BME280;17546;42.674;23.284;2023-05-03T00:55:16;95030.50;;;19.77;28.18
30819;BME280;17546;42.674;23.284;2023-05-03T00:57:42;95013.91;;;19.87;28.16
30819;BME280;17546;42.674;23.284;2023-05-03T01:00:08;95037.34;;;19.89;28.05
30819;BME280;17546;42.674;23.284;2023-05-03T01:02:35;95031.84;;;19.76;28.32
30819;BME280;17546;42.674;23.284;2023-05-03T01:05:00;95030.03;;;19.65;28.59
30819;BME280;17546;42.674;23.284;2023-05-03T01:10:27;95016.88;;;19.81;28.21
30819;BME280;17546;42.674;23.284;2023-05-03T01:15:58;94978.66;;;19.57;28.09
30819;BME280;17546;42.674;23.284;2023-05-03T01:18:36;94972.69;;;19.89;27.58
30819;BME280;17546;42.674;23.284;2023-05-03T01:21:04;94996.97;;;20.08;27.71
30819;BME280;17546;42.674;23.284;2023-05-03T01:23:45;94994.34;;;20.10;28.03
30819;BME280;17546;42.674;23.284;2023-05-03T01:26:24;94997.56;;;20.14;27.39
30819;BME280;17546;42.674;23.284;2023-05-03T01:28:51;94992.69;;;20.14;27.64
30819;BME280;17546;42.674;23.284;2023-05-03T01:31:21;94992.78;;;19.93;27.82
30819;BME280;17546;42.674;23.284;2023-05-03T01:36:43;94968.69;;;19.77;28.26
30819;BME280;17546;42.674;23.284;2023-05-03T01:39:17;94970.34;;;19.72;28.23
30819;BME280;17546;42.674;23.284;2023-05-03T01:41:43;94949.38;;;19.73;28.29
30819;BME280;17546;42.674;23.284;2023-05-03T01:44:15;94978.22;;;19.74;28.26
30819;BME280;17546;42.674;23.284;2023-05-03T01:46:45;94960.31;;;19.35;28.76
30819;BME280;17546;42.674;23.284;2023-05-03T01:49:11;94970.84;;;19.42;28.75
30819;BME280;17546;42.674;23.284;2023-05-03T01:51:37;94967.84;;;19.69;28.37
30819;BME280;17546;42.674;23.284;2023-05-03T01:54:02;94952.00;;;19.50;28.53
30819;BME280;17546;42.674;23.284;2023-05-03T01:56:29;94926.94;;;19.52;28.46
30819;BME280;17546;42.674;23.284;2023-05-03T01:58:54;94957.22;;;19.46;28.62
30819;BME280;17546;42.674;23.284;2023-05-03T02:01:20;94929.97;;;19.33;28.46
30819;BME280;17546;42.674;23.284;2023-05-03T02:03:45;94932.19;;;19.27;28.78
30819;BME280;17546;42.674;23.284;2023-05-03T02:06:11;94936.56;;;19.36;28.85
30819;BME280;17546;42.674;23.284;2023-05-03T02:08:36;94914.03;;;19.28;28.84
30819;BME280;17546;42.674;23.284;2023-05-03T02:11:02;94930.94;;;19.36;28.84
30819;BME280;17546;42.674;23.284;2023-05-03T02:13:27;94923.09;;;19.13;29.29
30819;BME280;17546;42.674;23.284;2023-05-03T02:15:52;94914.00;;;18.99;29.31
30819;BME280;17546;42.674;23.284;2023-05-03T02:18:20;94907.09;;;19.01;29.15
30819;BME280;17546;42.674;23.284;2023-05-03T02:20:46;94901.72;;;18.68;29.46
30819;BME280;17546;42.674;23.284;2023-05-03T02:23:12;94923.53;;;18.96;29.25
30819;BME280;17546;42.674;23.284;2023-05-03T02:25:38;94916.47;;;19.03;29.29
30819;BME280;17546;42.674;23.284;2023-05-03T02:28:05;94928.00;;;18.57;29.76
30819;BME280;17546;42.674;23.284;2023-05-03T02:30:31;94940.53;;;18.22;30.14
30819;BME280;17546;42.674;23.284;2023-05-03T02:32:57;94916.88;;;18.65;29.57
30819;BME280;17546;42.674;23.284;2023-05-03T02:35:22;94920.63;;;18.33;29.84
30819;BME280;17546;42.674;23.284;2023-05-03T02:37:48;94937.38;;;18.60;29.75
30819;BME280;17546;42.674;23.284;2023-05-03T02:40:13;94962.34;;;18.71;29.65
30819;BME280;17546;42.674;23.284;2023-05-03T02:42:39;94962.75;;;18.89;29.40
30819;BME280;17546;42.674;23.284;2023-05-03T02:45:05;94951.19;;;18.58;29.98
30819;BME280;17546;42.674;23.284;2023-05-03T02:47:31;94949.31;;;18.40;30.16
30819;BME280;17546;42.674;23.284;2023-05-03T02:49:56;94952.34;;;18.42;30.41
30819;BME280;17546;42.674;23.284;2023-05-03T02:52:22;94955.88;;;18.42;30.12
30819;BME280;17546;42.674;23.284;2023-05-03T02:54:48;94940.22;;;18.47;30.03
30819;BME280;17546;42.674;23.284;2023-05-03T02:57:14;94949.06;;;18.51;30.12
30819;BME280;17546;42.674;23.284;2023-05-03T02:59:39;94909.25;;;18.73;29.83
30819;BME280;17546;42.674;23.284;2023-05-03T03:02:11;94934.94;;;18.77;30.14
30819;BME280;17546;42.674;23.284;2023-05-03T03:04:36;94964.41;;;19.05;29.47
30819;BME280;17546;42.674;23.284;2023-05-03T03:07:02;94942.28;;;19.02;29.87
30819;BME280;17546;42.674;23.284;2023-05-03T03:09:27;94958.56;;;19.03;29.55
30819;BME280;17546;42.674;23.284;2023-05-03T03:11:53;94960.47;;;19.08;29.72
30819;BME280;17546;42.674;23.284;2023-05-03T03:14:18;94948.91;;;18.91;29.80
30819;BME280;17546;42.674;23.284;2023-05-03T03:16:46;94953.84;;;18.98;30.08
30819;BME280;17546;42.674;23.284;2023-05-03T03:19:11;94965.41;;;19.15;29.50
30819;BME280;17546;42.674;23.284;2023-05-03T03:21:37;94964.19;;;19.03;29.68
30819;BME280;17546;42.674;23.284;2023-05-03T03:24:04;94971.03;;;18.94;30.12
30819;BME280;17546;42.674;23.284;2023-05-03T03:26:30;94970.53;;;19.25;29.58
30819;BME280;17546;42.674;23.284;2023-05-03T03:28:55;94955.69;;;19.16;29.58
30819;BME280;17546;42.674;23.284;2023-05-03T03:31:20;94958.25;;;18.72;29.92
30819;BME280;17546;42.674;23.284;2023-05-03T03:33:50;94980.16;;;18.74;29.99
30819;BME280;17546;42.674;23.284;2023-05-03T03:36:19;94968.84;;;18.66;30.27
30819;BME280;17546;42.674;23.284;2023-05-03T03:38:45;94977.31;;;18.53;30.17
30819;BME280;17546;42.674;23.284;2023-05-03T03:41:10;94983.78;;;18.61;30.28
30819;BME280;17546;42.674;23.284;2023-05-03T03:43:36;94958.06;;;18.36;30.46
30819;BME280;17546;42.674;23.284;2023-05-03T03:46:05;94967.66;;;18.27;30.69
30819;BME280;17546;42.674;23.284;2023-05-03T03:48:30;94980.84;;;18.32;30.75
30819;BME280;17546;42.674;23.284;2023-05-03T03:50:56;94956.16;;;18.52;30.44
30819;BME280;17546;42.674;23.284;2023-05-03T03:53:22;94986.13;;;18.70;30.17
30819;BME280;17546;42.674;23.284;2023-05-03T03:55:48;94983.94;;;18.76;30.25
30819;BME280;17546;42.674;23.284;2023-05-03T03:58:13;95003.97;;;18.94;29.73
30819;BME280;17546;42.674;23.284;2023-05-03T04:00:39;94987.28;;;18.75;30.04
30819;BME280;17546;42.674;23.284;2023-05-03T04:03:05;95006.06;;;18.80;29.89
30819;BME280;17546;42.674;23.284;2023-05-03T04:05:31;95005.31;;;18.79;30.12
30819;BME280;17546;42.674;23.284;2023-05-03T04:07:57;95012.91;;;18.58;30.63
30819;BME280;17546;42.674;23.284;2023-05-03T04:10:23;95008.22;;;18.87;30.14
30819;BME280;17546;42.674;23.284;2023-05-03T04:12:48;95002.94;;;18.84;29.87
30819;BME280;17546;42.674;23.284;2023-05-03T04:15:14;95009.50;;;18.73;30.11
30819;BME280;17546;42.674;23.284;2023-05-03T04:17:40;95018.88;;;18.89;30.37
30819;BME280;17546;42.674;23.284;2023-05-03T04:20:05;95014.78;;;19.11;29.90
30819;BME280;17546;42.674;23.284;2023-05-03T04:22:37;95028.41;;;18.86;29.97
30819;BME280;17546;42.674;23.284;2023-05-03T04:25:07;95042.00;;;18.82;30.02
30819;BME280;17546;42.674;23.284;2023-05-03T04:27:33;95018.25;;;18.69;30.03
30819;BME280;17546;42.674;23.284;2023-05-03T04:30:03;95038.41;;;18.94;30.03
30819;BME280;17546;42.674;23.284;2023-05-03T04:32:29;95046.25;;;18.62;30.49
30819;BME280;17546;42.674;23.284;2023-05-03T04:35:02;95056.75;;;18.34;30.81
30819;BME280;17546;42.674;23.284;2023-05-03T04:37:28;95044.53;;;18.45;31.05
30819;BME280;17546;42.674;23.284;2023-05-03T04:39:54;95028.09;;;18.15;30.80
30819;BME280;17546;42.674;23.284;2023-05-03T04:42:29;95068.19;;;18.50;30.72
30819;BME280;17546;42.674;23.284;2023-05-03T04:44:55;95057.78;;;18.58;30.53
30819;BME280;17546;42.674;23.284;2023-05-03T04:47:20;95065.69;;;18.46;30.93
30819;BME280;17546;42.674;23.284;2023-05-03T04:49:46;95051.66;;;18.46;30.79
30819;BME280;17546;42.674;23.284;2023-05-03T04:52:12;95052.66;;;18.35;30.90
30819;BME280;17546;42.674;23.284;2023-05-03T04:54:38;95074.22;;;18.01;31.15
30819;BME280;17546;42.674;23.284;2023-05-03T04:57:03;95068.09;;;18.15;31.30
30819;BME280;17546;42.674;23.284;2023-05-03T04:59:29;95083.47;;;18.49;30.82
30819;BME280;17546;42.674;23.284;2023-05-03T05:01:54;95076.59;;;18.23;31.02
30819;BME280;17546;42.674;23.284;2023-05-03T05:04:20;95081.56;;;18.30;31.57
30819;BME280;17546;42.674;23.284;2023-05-03T05:06:59;95090.41;;;18.48;31.23
30819;BME280;17546;42.674;23.284;2023-05-03T05:09:26;95107.66;;;18.25;31.90
30819;BME280;17546;42.674;23.284;2023-05-03T05:11:52;95107.56;;;18.31;33.10
30819;BME280;17546;42.674;23.284;2023-05-03T05:14:17;95097.53;;;18.09;33.01
30819;BME280;17546;42.674;23.284;2023-05-03T05:16:43;95096.53;;;18.46;33.66
30819;BME280;17546;42.674;23.284;2023-05-03T05:19:09;95076.38;;;17.94;34.66
30819;BME280;17546;42.674;23.284;2023-05-03T05:21:35;95103.44;;;18.32;34.22
30819;BME280;17546;42.674;23.284;2023-05-03T05:24:00;95117.47;;;18.18;34.03
30819;BME280;17546;42.674;23.284;2023-05-03T05:26:26;95088.03;;;17.99;34.57
30819;BME280;17546;42.674;23.284;2023-05-03T05:28:52;95089.53;;;17.86;34.72
30819;BME280;17546;42.674;23.284;2023-05-03T05:31:17;95113.59;;;18.22;34.55
30819;BME280;17546;42.674;23.284;2023-05-03T05:33:50;95119.13;;;17.68;34.65
30819;BME280;17546;42.674;23.284;2023-05-03T05:36:16;95122.00;;;17.63;34.97
30819;BME280;17546;42.674;23.284;2023-05-03T05:38:42;95119.63;;;17.99;34.28
30819;BME280;17546;42.674;23.284;2023-05-03T05:41:07;95112.41;;;17.90;34.12
30819;BME280;17546;42.674;23.284;2023-05-03T05:43:32;95137.66;;;18.44;33.63
30819;BME280;17546;42.674;23.284;2023-05-03T05:45:58;95121.03;;;18.59;33.83
30819;BME280;17546;42.674;23.284;2023-05-03T05:48:23;95144.63;;;18.90;33.33
30819;BME280;17546;42.674;23.284;2023-05-03T05:50:49;95127.81;;;18.50;33.29
30819;BME280;17546;42.674;23.284;2023-05-03T05:53:15;95114.88;;;18.21;33.54
30819;BME280;17546;42.674;23.284;2023-05-03T05:55:40;95128.47;;;18.30;33.42
30819;BME280;17546;42.674;23.284;2023-05-03T05:58:06;95119.09;;;18.14;33.56
30819;BME280;17546;42.674;23.284;2023-05-03T06:00:31;95125.03;;;18.24;34.00
30819;BME280;17546;42.674;23.284;2023-05-03T06:02:57;95118.03;;;18.17;33.80
30819;BME280;17546;42.674;23.284;2023-05-03T06:05:22;95119.44;;;17.78;34.07
30819;BME280;17546;42.674;23.284;2023-05-03T06:07:48;95124.16;;;18.15;34.40
30819;BME280;17546;42.674;23.284;2023-05-03T06:10:14;95130.94;;;18.20;33.85
30819;BME280;17546;42.674;23.284;2023-05-03T06:12:39;95119.06;;;18.54;34.42
30819;BME280;17546;42.674;23.284;2023-05-03T06:15:06;95119.28;;;18.43;33.47
30819;BME280;17546;42.674;23.284;2023-05-03T06:17:32;95120.59;;;18.02;35.17
30819;BME280;17546;42.674;23.284;2023-05-03T06:19:57;95100.47;;;17.71;35.38
30819;BME280;17546;42.674;23.284;2023-05-03T06:22:23;95112.63;;;17.92;35.03
30819;BME280;17546;42.674;23.284;2023-05-03T06:24:49;95098.34;;;17.77;34.65
30819;BME280;17546;42.674;23.284;2023-05-03T06:27:15;95119.81;;;17.88;35.72
30819;BME280;17546;42.674;23.284;2023-05-03T06:29:40;95114.69;;;17.73;35.28
30819;BME280;17546;42.674;23.284;2023-05-03T06:32:06;95094.06;;;18.03;36.02
30819;BME280;17546;42.674;23.284;2023-05-03T06:34:32;95097.84;;;18.05;35.71
30819;BME280;17546;42.674;23.284;2023-05-03T06:37:00;95101.28;;;18.38;35.28
30819;BME280;17546;42.674;23.284;2023-05-03T06:39:26;95071.75;;;18.10;35.69
30819;BME280;17546;42.674;23.284;2023-05-03T06:41:52;95089.13;;;18.22;35.57
30819;BME280;17546;42.674;23.284;2023-05-03T06:44:17;95074.66;;;18.31;34.90
30819;BME280;17546;42.674;23.284;2023-05-03T06:46:43;95082.41;;;17.99;34.95
30819;BME280;17546;42.674;23.284;2023-05-03T06:49:08;95080.41;;;18.12;35.89
30819;BME280;17546;42.674;23.284;2023-05-03T06:51:34;95081.34;;;18.02;35.72
30819;BME280;17546;42.674;23.284;2023-05-03T06:54:01;95045.34;;;17.92;35.71
30819;BME280;17546;42.674;23.284;2023-05-03T06:56:32;95049.56;;;17.99;36.16
30819;BME280;17546;42.674;23.284;2023-05-03T06:59:01;95065.78;;;18.41;35.24
30819;BME280;17546;42.674;23.284;2023-05-03T07:01:27;95082.41;;;18.12;35.16
30819;BME280;17546;42.674;23.284;2023-05-03T07:03:52;95059.78;;;18.23;34.86
30819;BME280;17546;42.674;23.284;2023-05-03T07:06:18;95078.53;;;18.42;35.02
30819;BME280;17546;42.674;23.284;2023-05-03T07:08:44;95056.63;;;18.40;35.02
30819;BME280;17546;42.674;23.284;2023-05-03T07:11:09;95061.94;;;18.44;34.97
30819;BME280;17546;42.674;23.284;2023-05-03T07:13:35;95060.72;;;18.52;34.69
30819;BME280;17546;42.674;23.284;2023-05-03T07:16:00;95060.34;;;18.83;34.56
30819;BME280;17546;42.674;23.284;2023-05-03T07:18:27;95062.94;;;18.81;34.58
30819;BME280;17546;42.674;23.284;2023-05-03T07:20:52;95058.13;;;19.02;34.08
30819;BME280;17546;42.674;23.284;2023-05-03T07:23:18;95060.66;;;18.92;34.05
30819;BME280;17546;42.674;23.284;2023-05-03T07:25:43;95065.19;;;18.82;34.28
30819;BME280;17546;42.674;23.284;2023-05-03T07:28:10;95071.53;;;18.96;34.21
30819;BME280;17546;42.674;23.284;2023-05-03T07:30:35;95090.69;;;19.39;33.54
30819;BME280;17546;42.674;23.284;2023-05-03T07:33:02;95096.88;;;19.38;33.65
30819;BME280;17546;42.674;23.284;2023-05-03T07:35:28;95097.53;;;19.31;33.64
30819;BME280;17546;42.674;23.284;2023-05-03T07:37:53;95094.75;;;19.52;33.42
30819;BME280;17546;42.674;23.284;2023-05-03T07:40:19;95096.66;;;19.57;33.46
30819;BME280;17546;42.674;23.284;2023-05-03T07:42:44;95095.75;;;19.41;33.32
30819;BME280;17546;42.674;23.284;2023-05-03T07:45:10;95062.38;;;19.16;33.59
30819;BME280;17546;42.674;23.284;2023-05-03T07:47:36;95090.00;;;19.68;33.37
30819;BME280;17546;42.674;23.284;2023-05-03T07:50:03;95093.00;;;19.49;33.63
30819;BME280;17546;42.674;23.284;2023-05-03T07:52:37;95079.03;;;19.98;33.41
30819;BME280;17546;42.674;23.284;2023-05-03T07:55:04;95079.84;;;19.86;33.57
30819;BME280;17546;42.674;23.284;2023-05-03T07:57:33;95071.50;;;19.30;33.55
30819;BME280;17546;42.674;23.284;2023-05-03T07:59:58;95089.84;;;19.94;33.71
30819;BME280;17546;42.674;23.284;2023-05-03T08:02:24;95091.88;;;20.15;33.71
30819;BME280;17546;42.674;23.284;2023-05-03T08:04:53;95099.00;;;20.16;33.26
30819;BME280;17546;42.674;23.284;2023-05-03T08:07:19;95106.19;;;20.25;33.65
30819;BME280;17546;42.674;23.284;2023-05-03T08:09:45;95085.25;;;20.33;33.07
30819;BME280;17546;42.674;23.284;2023-05-03T08:12:11;95082.97;;;20.32;33.72
30819;BME280;17546;42.674;23.284;2023-05-03T08:14:37;95107.16;;;20.63;33.29
30819;BME280;17546;42.674;23.284;2023-05-03T08:17:03;95103.19;;;20.22;33.14
30819;BME280;17546;42.674;23.284;2023-05-03T08:19:31;95098.38;;;20.38;33.02
30819;BME280;17546;42.674;23.284;2023-05-03T08:21:57;95107.00;;;20.61;32.62
30819;BME280;17546;42.674;23.284;2023-05-03T08:24:23;95102.81;;;20.55;33.11
30819;BME280;17546;42.674;23.284;2023-05-03T08:26:49;95106.16;;;20.90;33.19
30819;BME280;17546;42.674;23.284;2023-05-03T08:29:14;95110.41;;;21.19;33.06
30819;BME280;17546;42.674;23.284;2023-05-03T08:31:40;95093.88;;;21.31;32.44
30819;BME280;17546;42.674;23.284;2023-05-03T08:34:07;95081.56;;;21.57;31.79
30819;BME280;17546;42.674;23.284;2023-05-03T08:36:35;95107.13;;;21.75;31.58
30819;BME280;17546;42.674;23.284;2023-05-03T08:39:03;95090.97;;;21.83;32.12
30819;BME280;17546;42.674;23.284;2023-05-03T08:41:33;95117.66;;;22.36;31.87
30819;BME280;17546;42.674;23.284;2023-05-03T08:44:00;95087.88;;;22.58;31.67
30819;BME280;17546;42.674;23.284;2023-05-03T08:46:26;95090.88;;;23.08;31.22
30819;BME280;17546;42.674;23.284;2023-05-03T08:48:53;95095.41;;;23.44;30.42
30819;BME280;17546;42.674;23.284;2023-05-03T08:51:23;95121.78;;;23.71;29.53
30819;BME280;17546;42.674;23.284;2023-05-03T08:53:49;95089.16;;;24.03;29.81
30819;BME280;17546;42.674;23.284;2023-05-03T08:56:28;95112.22;;;24.17;28.40
30819;BME280;17546;42.674;23.284;2023-05-03T08:58:58;95106.44;;;23.24;29.57
30819;BME280;17546;42.674;23.284;2023-05-03T09:01:31;95125.16;;;23.52;29.87
30819;BME280;17546;42.674;23.284;2023-05-03T09:03:59;95114.91;;;23.90;28.96
30819;BME280;17546;42.674;23.284;2023-05-03T09:06:24;95126.81;;;23.88;29.55
30819;BME280;17546;42.674;23.284;2023-05-03T09:08:51;95115.72;;;24.08;29.23
30819;BME280;17546;42.674;23.284;2023-05-03T09:11:27;95113.69;;;24.01;29.51
30819;BME280;17546;42.674;23.284;2023-05-03T09:14:14;95114.63;;;24.03;29.61
30819;BME280;17546;42.674;23.284;2023-05-03T09:16:45;95102.41;;;24.18;29.46
30819;BME280;17546;42.674;23.284;2023-05-03T09:19:12;95098.44;;;23.96;29.11
30819;BME280;17546;42.674;23.284;2023-05-03T09:21:42;95081.06;;;24.00;29.33
30819;BME280;17546;42.674;23.284;2023-05-03T09:24:19;95081.16;;;24.09;28.96
30819;BME280;17546;42.674;23.284;2023-05-03T09:26:51;95090.69;;;24.39;29.30
30819;BME280;17546;42.674;23.284;2023-05-03T09:29:29;95089.44;;;24.32;28.69
30819;BME280;17546;42.674;23.284;2023-05-03T09:31:59;95082.03;;;24.20;29.17
30819;BME280;17546;42.674;23.284;2023-05-03T09:34:25;95090.53;;;23.37;29.57
30819;BME280;17546;42.674;23.284;2023-05-03T09:36:50;95076.56;;;23.46;29.64
30819;BME280;17546;42.674;23.284;2023-05-03T09:39:18;95061.38;;;23.59;29.58
30819;BME280;17546;42.674;23.284;2023-05-03T09:41:44;95053.97;;;23.39;29.68
30819;BME280;17546;42.674;23.284;2023-05-03T09:44:10;95061.97;;;23.83;29.57
30819;BME280;17546;42.674;23.284;2023-05-03T09:47:09;95046.38;;;23.99;29.99
30819;BME280;17546;42.674;23.284;2023-05-03T09:49:34;95059.38;;;24.20;30.35
30819;BME280;17546;42.674;23.284;2023-05-03T09:52:01;95056.00;;;24.56;30.08
30819;BME280;17546;42.674;23.284;2023-05-03T09:54:28;95058.16;;;24.83;29.01
30819;BME280;17546;42.674;23.284;2023-05-03T09:56:55;95058.03;;;24.21;29.05
30819;BME280;17546;42.674;23.284;2023-05-03T09:59:22;95046.03;;;25.00;28.52
30819;BME280;17546;42.674;23.284;2023-05-03T10:01:47;95047.56;;;25.28;28.27
30819;BME280;17546;42.674;23.284;2023-05-03T10:04:16;95049.94;;;25.59;27.98
30819;BME280;17546;42.674;23.284;2023-05-03T10:06:47;95037.69;;;25.56;28.11
30819;BME280;17546;42.674;23.284;2023-05-03T10:09:33;95048.41;;;25.48;27.63
30819;BME280;17546;42.674;23.284;2023-05-03T10:12:03;95033.59;;;25.40;28.10
30819;BME280;17546;42.674;23.284;2023-05-03T10:14:31;95043.81;;;25.25;28.58
30819;BME280;17546;42.674;23.284;2023-05-03T10:17:07;95040.13;;;25.69;28.77
30819;BME280;17546;42.674;23.284;2023-05-03T10:19:36;95014.72;;;25.62;28.79
30819;BME280;17546;42.674;23.284;2023-05-03T10:22:05;95012.09;;;25.73;28.01
30819;BME280;17546;42.674;23.284;2023-05-03T10:24:33;95024.06;;;25.45;27.68
30819;BME280;17546;42.674;23.284;2023-05-03T10:26:59;94998.00;;;25.66;27.49
30819;BME280;17546;42.674;23.284;2023-05-03T10:32:35;95010.69;;;26.11;27.65
30819;BME280;17546;42.674;23.284;2023-05-03T10:35:13;94990.22;;;24.92;28.60
30819;BME280;17546;42.674;23.284;2023-05-03T10:37:41;94987.69;;;24.69;28.91
30819;BME280;17546;42.674;23.284;2023-05-03T10:40:17;94993.75;;;24.83;28.77
30819;BME280;17546;42.674;23.284;2023-05-03T10:42:55;94975.78;;;25.25;28.75
30819;BME280;17546;42.674;23.284;2023-05-03T10:45:27;95002.03;;;25.63;28.87
30819;BME280;17546;42.674;23.284;2023-05-03T10:50:37;94991.81;;;25.87;28.05
30819;BME280;17546;42.674;23.284;2023-05-03T10:53:03;94991.44;;;25.63;28.45
30819;BME280;17546;42.674;23.284;2023-05-03T10:55:29;95002.44;;;24.95;29.23
30819;BME280;17546;42.674;23.284;2023-05-03T10:57:56;94998.59;;;24.73;29.50
30819;BME280;17546;42.674;23.284;2023-05-03T11:00:29;94973.00;;;24.19;29.71
30819;BME280;17546;42.674;23.284;2023-05-03T11:05:49;94983.47;;;25.15;29.18
30819;BME280;17546;42.674;23.284;2023-05-03T11:08:20;94978.56;;;24.26;29.80
30819;BME280;17546;42.674;23.284;2023-05-03T11:10:48;94989.44;;;24.65;30.14
30819;BME280;17546;42.674;23.284;2023-05-03T11:13:14;94988.03;;;25.01;29.72
30819;BME280;17546;42.674;23.284;2023-05-03T11:15:40;94976.00;;;25.10;29.73
30819;BME280;17546;42.674;23.284;2023-05-03T11:18:08;94964.66;;;24.83;30.09
30819;BME280;17546;42.674;23.284;2023-05-03T11:20:37;94991.00;;;25.20;29.93
30819;BME280;17546;42.674;23.284;2023-05-03T11:23:03;94974.22;;;25.14;29.87
30819;BME280;17546;42.674;23.284;2023-05-03T11:25:29;94980.44;;;25.30;29.10
30819;BME280;17546;42.674;23.284;2023-05-03T11:27:55;94973.28;;;25.29;28.70
30819;BME280;17546;42.674;23.284;2023-05-03T11:30:21;94972.44;;;24.65;29.33
30819;BME280;17546;42.674;23.284;2023-05-03T11:32:46;94968.19;;;25.01;29.50
30819;BME280;17546;42.674;23.284;2023-05-03T11:35:12;94955.88;;;24.88;28.89
30819;BME280;17546;42.674;23.284;2023-05-03T11:37:38;94972.66;;;25.04;29.21
30819;BME280;17546;42.674;23.284;2023-05-03T11:40:05;94968.78;;;25.26;29.51
30819;BME280;17546;42.674;23.284;2023-05-03T11:42:31;94979.03;;;25.22;29.87
30819;BME280;17546;42.674;23.284;2023-05-03T11:44:56;94957.34;;;25.44;29.15
30819;BME280;17546;42.674;23.284;2023-05-03T11:47:22;94945.44;;;25.55;29.99
30819;BME280;17546;42.674;23.284;2023-05-03T11:49:54;94949.03;;;25.55;29.43
30819;BME280;17546;42.674;23.284;2023-05-03T11:52:21;94940.59;;;25.28;29.63
30819;BME280;17546;42.674;23.284;2023-05-03T11:54:47;94931.31;;;25.74;29.04
30819;BME280;17546;42.674;23.284;2023-05-03T11:57:12;94920.09;;;25.67;29.43
30819;BME280;17546;42.674;23.284;2023-05-03T11:59:41;94932.47;;;25.62;29.44
30819;BME280;17546;42.674;23.284;2023-05-03T12:02:10;94932.38;;;24.95;30.19
30819;BME280;17546;42.674;23.284;2023-05-03T12:04:38;94919.09;;;25.25;30.08
30819;BME280;17546;42.674;23.284;2023-05-03T12:07:07;94922.78;;;24.37;31.25
30819;BME280;17546;42.674;23.284;2023-05-03T12:09:33;94916.50;;;24.38;31.13
30819;BME280;17546;42.674;23.284;2023-05-03T12:12:00;94906.22;;;24.33;31.32
30819;BME280;17546;42.674;23.284;2023-05-03T12:14:26;94925.22;;;23.88;31.87
30819;BME280;17546;42.674;23.284;2023-05-03T12:16:53;94917.13;;;24.19;31.49
30819;BME280;17546;42.674;23.284;2023-05-03T12:21:49;94916.19;;;25.15;30.81
30819;BME280;17546;42.674;23.284;2023-05-03T12:24:15;94922.84;;;24.29;31.05
30819;BME280;17546;42.674;23.284;2023-05-03T12:26:45;94903.31;;;24.68;30.69
30819;BME280;17546;42.674;23.284;2023-05-03T12:29:11;94896.78;;;23.86;32.02
30819;BME280;17546;42.674;23.284;2023-05-03T12:31:39;94919.88;;;23.92;31.89
30819;BME280;17546;42.674;23.284;2023-05-03T12:34:05;94895.09;;;24.00;31.95
30819;BME280;17546;42.674;23.284;2023-05-03T12:36:30;94923.56;;;24.02;31.68
30819;BME280;17546;42.674;23.284;2023-05-03T12:38:57;94928.41;;;23.67;32.31
30819;BME280;17546;42.674;23.284;2023-05-03T12:41:24;94911.72;;;23.79;32.30
30819;BME280;17546;42.674;23.284;2023-05-03T12:43:52;94918.25;;;23.46;32.59
30819;BME280;17546;42.674;23.284;2023-05-03T12:46:18;94913.16;;;23.45;32.89
30819;BME280;17546;42.674;23.284;2023-05-03T12:48:43;94905.97;;;23.69;32.24
30819;BME280;17546;42.674;23.284;2023-05-03T12:51:09;94916.09;;;23.72;32.63
30819;BME280;17546;42.674;23.284;2023-05-03T12:53:34;94918.72;;;23.78;32.38
30819;BME280;17546;42.674;23.284;2023-05-03T12:56:00;94905.06;;;23.66;32.16
30819;BME280;17546;42.674;23.284;2023-05-03T12:58:25;94895.56;;;23.54;32.49
30819;BME280;17546;42.674;23.284;2023-05-03T13:00:51;94889.75;;;23.69;32.36
30819;BME280;17546;42.674;23.284;2023-05-03T13:03:16;94912.06;;;23.83;32.93
30819;BME280;17546;42.674;23.284;2023-05-03T13:05:43;94903.22;;;23.61;33.60
30819;BME280;17546;42.674;23.284;2023-05-03T13:08:08;94891.41;;;23.55;33.84
30819;BME280;17546;42.674;23.284;2023-05-03T13:10:36;94887.50;;;23.50;33.74